Time;durP1;ratioP1;P1;durP2;ratioP2;P2;SDS_P1;SDS_P2;PMS_P1;PMS_P2;Temp;Humidity;BMP_temperature;BMP_pressure;BME280_temperature;BME280_humidity;BME280_pressure;Samples;Min_cycle;Max_cycle;Signal;HPM_P1;HPM_P2
2021/10/26 00:01:40;;;;;;;12.13;9.30;;;11.70;99.90;;;;;;5027704;28;20237;-47
2021/10/26 00:04:09;;;;;;;10.80;9.17;;;11.80;99.90;;;;;;5027637;28;20248;-46
2021/10/26 00:06:35;;;;;;;9.77;8.03;;;11.80;99.90;;;;;;5028296;28;20432;-45
2021/10/26 00:09:03;;;;;;;13.53;9.00;;;11.70;99.90;;;;;;5027805;28;20428;-46
2021/10/26 00:11:29;;;;;;;11.80;9.23;;;11.90;99.90;;;;;;5027699;28;20460;-47
2021/10/26 00:13:55;;;;;;;11.00;8.70;;;11.90;99.90;;;;;;5019114;28;20469;-46
2021/10/26 00:16:20;;;;;;;9.97;8.03;;;11.90;99.90;;;;;;5028037;28;20691;-46
2021/10/26 00:18:46;;;;;;;11.17;8.70;;;11.90;99.90;;;;;;5027550;28;20619;-45
2021/10/26 00:21:12;;;;;;;10.27;8.40;;;11.80;99.90;;;;;;5027826;28;20198;-47
2021/10/26 00:23:38;;;;;;;9.97;8.97;;;12.00;99.90;;;;;;5027568;28;20516;-46
2021/10/26 00:26:04;;;;;;;12.90;8.20;;;12.00;99.90;;;;;;5028042;28;20814;-45
2021/10/26 00:28:34;;;;;;;11.30;8.80;;;12.00;99.90;;;;;;5017860;28;20437;-46
2021/10/26 00:31:00;;;;;;;10.27;8.63;;;12.00;99.90;;;;;;5027480;28;20222;-45
2021/10/26 00:33:27;;;;;;;10.63;8.80;;;11.90;99.90;;;;;;5026476;28;20437;-45
2021/10/26 00:35:53;;;;;;;11.33;8.80;;;11.80;99.90;;;;;;5027693;28;20467;-45
2021/10/26 00:38:19;;;;;;;9.50;7.63;;;11.80;99.90;;;;;;5027275;28;20465;-46
2021/10/26 00:40:46;;;;;;;9.43;8.53;;;11.90;99.90;;;;;;5026194;28;20465;-47
2021/10/26 00:43:12;;;;;;;10.00;9.00;;;11.90;99.90;;;;;;5017966;28;20651;-49
2021/10/26 00:45:38;;;;;;;11.20;8.50;;;11.80;99.90;;;;;;5022143;28;20471;-45
2021/10/26 00:48:04;;;;;;;9.13;7.83;;;11.90;99.90;;;;;;5027185;28;20429;-49
2021/10/26 00:50:30;;;;;;;9.40;7.90;;;12.20;99.90;;;;;;5027269;28;20194;-47
2021/10/26 00:52:55;;;;;;;9.53;7.73;;;12.00;99.90;;;;;;5026698;28;20439;-45
2021/10/26 00:55:21;;;;;;;10.30;7.90;;;12.10;99.90;;;;;;5026880;28;20587;-45
2021/10/26 00:57:47;;;;;;;8.87;7.97;;;12.00;99.90;;;;;;5018468;28;20709;-45
2021/10/26 01:00:15;;;;;;;8.50;7.13;;;12.00;99.90;;;;;;5022088;28;20555;-46
2021/10/26 01:02:44;;;;;;;12.27;8.30;;;11.90;99.90;;;;;;5027335;28;20698;-45
2021/10/26 01:05:12;;;;;;;12.10;8.70;;;12.00;99.90;;;;;;5026973;28;20437;-46
2021/10/26 01:07:38;;;;;;;9.13;7.53;;;12.00;99.90;;;;;;5026986;28;20423;-45
2021/10/26 01:10:06;;;;;;;9.77;8.50;;;12.00;99.90;;;;;;5026939;28;20437;-45
2021/10/26 01:12:31;;;;;;;9.87;8.27;;;12.00;99.90;;;;;;5020628;28;20519;-45
2021/10/26 01:14:57;;;;;;;10.10;8.07;;;12.10;99.90;;;;;;5022276;28;20437;-46
2021/10/26 01:17:23;;;;;;;9.97;8.97;;;12.00;99.90;;;;;;5027001;28;20432;-46
2021/10/26 01:19:50;;;;;;;12.30;8.67;;;12.10;99.90;;;;;;5026771;28;20614;-46
2021/10/26 01:22:18;;;;;;;11.23;8.70;;;12.00;99.90;;;;;;5026831;28;20187;-45
2021/10/26 01:24:45;;;;;;;10.30;9.20;;;11.90;99.90;;;;;;5025929;28;20421;-46
2021/10/26 01:27:11;;;;;;;12.30;9.37;;;11.80;99.90;;;;;;5024337;28;20463;-46
2021/10/26 01:29:37;;;;;;;11.00;8.07;;;11.80;99.90;;;;;;5019509;28;20464;-47
2021/10/26 01:32:05;;;;;;;10.93;8.93;;;11.90;99.90;;;;;;5026643;28;20540;-50
2021/10/26 01:34:31;;;;;;;12.17;8.23;;;11.90;99.90;;;;;;5025958;28;20421;-48
2021/10/26 01:36:58;;;;;;;12.53;9.37;;;11.90;99.90;;;;;;5026689;28;20433;-45
2021/10/26 01:39:24;;;;;;;12.80;10.87;;;11.90;99.90;;;;;;5026506;28;20224;-45
2021/10/26 01:41:49;;;;;;;12.10;9.23;;;12.10;99.90;;;;;;5026164;28;20421;-46
2021/10/26 01:44:15;;;;;;;11.10;9.17;;;12.00;99.90;;;;;;5009765;28;20206;-45
2021/10/26 01:46:41;;;;;;;11.63;9.30;;;12.20;99.90;;;;;;5026055;28;20264;-45
2021/10/26 01:49:07;;;;;;;11.43;9.13;;;12.00;99.90;;;;;;5026406;28;20429;-49
2021/10/26 01:51:33;;;;;;;12.00;9.70;;;12.00;99.90;;;;;;5026114;28;20425;-45
2021/10/26 01:53:58;;;;;;;11.50;8.90;;;11.90;99.90;;;;;;5025353;28;20210;-45
2021/10/26 01:56:24;;;;;;;10.63;9.53;;;11.90;99.90;;;;;;5025894;28;20596;-49
2021/10/26 01:58:50;;;;;;;11.20;9.37;;;12.10;99.90;;;;;;5014144;28;20202;-47
2021/10/26 02:01:16;;;;;;;11.77;9.47;;;12.10;99.90;;;;;;5022879;28;20179;-45
2021/10/26 02:03:41;;;;;;;12.73;9.80;;;12.00;99.90;;;;;;5025839;28;20413;-48
2021/10/26 02:06:07;;;;;;;11.70;10.40;;;12.00;99.90;;;;;;5025174;28;20534;-46
2021/10/26 02:08:33;;;;;;;13.33;10.47;;;12.10;99.90;;;;;;5026025;28;20190;-46
2021/10/26 02:10:58;;;;;;;11.00;9.80;;;11.90;99.90;;;;;;5026127;28;20662;-48
2021/10/26 02:13:24;;;;;;;14.47;10.30;;;11.80;99.90;;;;;;5018716;28;21011;-48
2021/10/26 02:15:50;;;;;;;13.40;11.77;;;12.10;99.90;;;;;;5019587;28;20183;-46
2021/10/26 02:18:15;;;;;;;11.30;9.67;;;11.90;99.90;;;;;;5025632;28;20221;-47
2021/10/26 02:20:41;;;;;;;11.03;9.40;;;11.80;99.90;;;;;;5024478;28;20218;-45
2021/10/26 02:23:07;;;;;;;13.40;9.63;;;12.00;99.90;;;;;;5025528;28;20649;-49
2021/10/26 02:25:33;;;;;;;10.73;9.50;;;11.80;99.90;;;;;;5025876;28;20440;-46
2021/10/26 02:27:59;;;;;;;11.13;9.80;;;11.90;99.90;;;;;;5020716;28;20696;-48
2021/10/26 02:30:25;;;;;;;11.07;8.93;;;11.80;99.90;;;;;;5019912;28;20426;-47
2021/10/26 02:32:50;;;;;;;9.20;8.23;;;11.80;99.90;;;;;;5025082;28;20830;-47
2021/10/26 02:35:17;;;;;;;11.03;9.67;;;12.00;99.90;;;;;;5025573;28;20248;-46
2021/10/26 02:37:42;;;;;;;10.60;9.00;;;12.00;99.90;;;;;;5025509;28;20190;-45
2021/10/26 02:40:09;;;;;;;11.63;10.07;;;11.90;99.90;;;;;;5025601;28;20483;-46
2021/10/26 02:42:35;;;;;;;10.30;9.00;;;12.00;99.90;;;;;;5024830;28;20186;-46
2021/10/26 02:45:02;;;;;;;9.90;8.87;;;12.10;99.90;;;;;;5019093;28;20425;-50
2021/10/26 02:47:28;;;;;;;13.27;9.10;;;12.00;99.90;;;;;;5025509;28;21183;-45
2021/10/26 02:49:53;;;;;;;11.00;9.50;;;12.00;99.90;;;;;;5025615;28;20467;-46
2021/10/26 02:52:19;;;;;;;10.77;8.57;;;12.10;99.90;;;;;;5025426;28;20264;-47
2021/10/26 02:54:45;;;;;;;14.10;9.40;;;12.10;99.90;;;;;;5024526;28;20197;-47
2021/10/26 02:57:11;;;;;;;12.33;9.97;;;12.10;99.90;;;;;;5025274;28;20437;-45
2021/10/26 02:59:36;;;;;;;10.60;8.57;;;12.20;99.90;;;;;;5023537;28;20838;-46
2021/10/26 03:02:02;;;;;;;12.83;10.00;;;12.20;99.90;;;;;;5025322;28;20732;-46
2021/10/26 03:04:28;;;;;;;11.50;8.90;;;12.10;99.90;;;;;;5024815;28;20187;-46
2021/10/26 03:06:54;;;;;;;12.83;9.10;;;12.00;99.90;;;;;;5025582;28;20409;-48
2021/10/26 03:09:20;;;;;;;11.07;9.27;;;12.00;99.90;;;;;;5025257;28;20681;-48
2021/10/26 03:11:46;;;;;;;14.97;9.60;;;12.10;99.90;;;;;;5023847;28;20244;-48
2021/10/26 03:14:11;;;;;;;13.83;10.03;;;12.00;99.90;;;;;;5015339;28;20445;-47
2021/10/26 03:16:37;;;;;;;13.70;9.70;;;12.00;99.90;;;;;;5025248;28;20213;-45
2021/10/26 03:19:05;;;;;;;19.73;10.73;;;12.30;99.90;;;;;;5028898;28;20182;-46
2021/10/26 03:21:32;;;;;;;15.13;10.60;;;12.00;99.90;;;;;;5029019;28;20190;-46
2021/10/26 03:23:58;;;;;;;14.90;11.40;;;12.00;99.90;;;;;;5015090;28;20413;-45
2021/10/26 03:26:24;;;;;;;13.23;9.90;;;11.90;99.90;;;;;;5029083;28;21276;-46
2021/10/26 03:28:50;;;;;;;16.00;9.73;;;12.00;99.90;;;;;;5021257;28;20948;-47
2021/10/26 03:31:16;;;;;;;12.63;10.27;;;11.90;99.90;;;;;;5025316;28;20218;-48
2021/10/26 03:33:41;;;;;;;16.33;11.37;;;11.90;99.90;;;;;;5028294;28;20414;-46
2021/10/26 03:36:07;;;;;;;17.47;11.13;;;12.00;99.90;;;;;;5028652;28;20220;-46
2021/10/26 03:38:35;;;;;;;12.73;10.27;;;12.20;99.90;;;;;;5028811;28;20564;-45
2021/10/26 03:41:01;;;;;;;15.63;11.73;;;12.20;99.90;;;;;;5028612;28;20590;-45
2021/10/26 03:43:27;;;;;;;14.63;12.07;;;12.00;99.90;;;;;;5024444;28;20940;-46
2021/10/26 03:45:52;;;;;;;16.60;12.23;;;12.00;99.90;;;;;;5022303;28;20471;-45
2021/10/26 03:48:20;;;;;;;15.10;11.40;;;12.00;99.90;;;;;;5028628;28;20187;-48
2021/10/26 03:50:46;;;;;;;14.87;11.77;;;12.30;99.90;;;;;;5028182;28;20623;-46
2021/10/26 03:53:11;;;;;;;13.40;10.70;;;11.90;99.90;;;;;;5027477;28;20565;-45
2021/10/26 03:55:37;;;;;;;13.93;11.67;;;12.00;99.90;;;;;;5028136;28;20624;-45
2021/10/26 03:58:07;;;;;;;15.77;11.77;;;12.00;99.90;;;;;;5029606;28;20218;-47
2021/10/26 04:00:33;;;;;;;18.03;12.37;;;12.30;99.90;;;;;;5025126;28;20218;-45
2021/10/26 04:02:59;;;;;;;16.80;11.90;;;12.10;99.90;;;;;;5027574;28;20425;-45
2021/10/26 04:05:45;;;;;;;18.13;12.60;;;12.00;99.90;;;;;;5027699;28;20590;-47
2021/10/26 04:11:17;;;;;;;19.10;13.03;;;12.10;99.90;;;;;;5027790;28;20576;-45
2021/10/26 04:13:43;;;;;;;13.77;12.20;;;12.00;99.90;;;;;;5021478;28;20442;-48
2021/10/26 04:16:09;;;;;;;15.30;12.67;;;12.00;99.90;;;;;;5015273;28;20877;-47
2021/10/26 04:18:35;;;;;;;17.83;13.47;;;12.00;99.90;;;;;;5031458;28;20429;-48
2021/10/26 04:21:01;;;;;;;14.27;11.80;;;11.90;99.90;;;;;;5028119;28;20221;-45
2021/10/26 04:23:26;;;;;;;17.50;12.10;;;11.90;99.90;;;;;;5025012;28;20194;-49
2021/10/26 04:25:52;;;;;;;17.20;13.63;;;11.90;99.90;;;;;;5026285;28;20428;-45
2021/10/26 04:28:18;;;;;;;17.03;13.30;;;12.00;99.90;;;;;;5022257;28;20221;-47
2021/10/26 04:30:44;;;;;;;21.00;13.97;;;12.10;99.90;;;;;;5019247;28;20240;-46
2021/10/26 04:33:11;;;;;;;18.73;13.23;;;11.90;99.90;;;;;;5024861;28;20581;-47
2021/10/26 04:35:37;;;;;;;17.03;14.10;;;12.30;99.90;;;;;;5029383;28;20559;-45
2021/10/26 04:38:04;;;;;;;16.40;13.10;;;12.10;99.90;;;;;;5027541;28;20516;-46
2021/10/26 04:40:31;;;;;;;17.20;13.13;;;12.10;99.90;;;;;;5027404;28;20677;-45
2021/10/26 04:42:58;;;;;;;18.43;13.50;;;12.10;99.90;;;;;;5022809;28;20789;-46
2021/10/26 04:45:24;;;;;;;17.73;13.60;;;12.00;99.90;;;;;;5018129;28;20960;-51
2021/10/26 04:47:50;;;;;;;17.73;13.13;;;12.00;99.90;;;;;;5026360;28;20730;-46
2021/10/26 04:50:17;;;;;;;22.17;14.33;;;12.10;99.90;;;;;;5026735;28;20179;-46
2021/10/26 04:52:42;;;;;;;16.93;12.30;;;12.00;99.90;;;;;;5025273;28;20421;-50
2021/10/26 04:55:09;;;;;;;19.47;12.77;;;12.10;99.90;;;;;;5025567;28;20808;-45
2021/10/26 04:57:35;;;;;;;15.87;12.70;;;12.10;99.90;;;;;;5026202;28;20892;-45
2021/10/26 05:00:01;;;;;;;21.07;12.80;;;12.10;99.90;;;;;;5018520;28;20564;-46
2021/10/26 05:02:26;;;;;;;20.13;14.00;;;12.00;99.90;;;;;;5025462;28;20523;-45
2021/10/26 05:04:52;;;;;;;19.63;13.87;;;12.00;99.90;;;;;;5025967;28;20551;-47
2021/10/26 05:07:18;;;;;;;20.73;13.27;;;12.00;99.90;;;;;;5026632;28;20209;-45
2021/10/26 05:09:44;;;;;;;19.90;13.57;;;12.00;99.90;;;;;;5026756;28;20186;-47
2021/10/26 05:12:09;;;;;;;18.53;13.37;;;11.90;99.90;;;;;;5025046;28;20190;-46
2021/10/26 05:14:35;;;;;;;19.10;14.13;;;12.20;99.90;;;;;;5019565;28;20599;-46
2021/10/26 05:17:05;;;;;;;22.37;15.13;;;12.10;99.90;;;;;;5022467;28;20193;-45
2021/10/26 05:19:32;;;;;;;22.27;14.20;;;11.80;99.90;;;;;;5026676;28;20305;-45
2021/10/26 05:21:58;;;;;;;24.73;14.90;;;12.00;99.90;;;;;;5027298;28;20429;-46
2021/10/26 05:24:30;;;;;;;17.83;13.53;;;12.10;99.90;;;;;;5025934;28;20974;-47
2021/10/26 05:26:56;;;;;;;19.53;13.33;;;11.90;99.90;;;;;;5026362;28;20228;-45
2021/10/26 05:29:21;;;;;;;19.90;14.00;;;12.10;99.90;;;;;;5022756;28;20446;-48
2021/10/26 05:31:47;;;;;;;17.80;12.90;;;12.00;99.90;;;;;;5022926;28;20209;-45
2021/10/26 05:34:14;;;;;;;16.87;13.20;;;12.10;99.90;;;;;;5025723;28;20229;-45
2021/10/26 05:36:40;;;;;;;17.00;12.77;;;12.10;99.90;;;;;;5026136;28;20228;-46
2021/10/26 05:39:07;;;;;;;19.60;12.17;;;12.10;99.90;;;;;;5026304;28;20421;-45
2021/10/26 05:41:33;;;;;;;15.33;11.13;;;12.10;99.90;;;;;;5025268;28;20555;-46
2021/10/26 05:44:00;;;;;;;15.50;12.10;;;12.10;99.90;;;;;;5025631;28;20982;-48
2021/10/26 05:46:25;;;;;;;20.37;11.87;;;12.10;99.90;;;;;;5015020;28;20449;-47
2021/10/26 05:48:51;;;;;;;16.33;11.30;;;12.10;99.90;;;;;;5026328;28;20429;-46
2021/10/26 05:51:17;;;;;;;14.00;11.10;;;12.10;99.90;;;;;;5025789;28;20221;-46
2021/10/26 05:53:43;;;;;;;18.17;11.40;;;12.00;99.90;;;;;;5025887;28;20194;-49
2021/10/26 05:56:09;;;;;;;19.07;12.67;;;12.00;99.90;;;;;;5025355;28;20842;-45
2021/10/26 05:58:35;;;;;;;15.30;10.77;;;11.90;99.90;;;;;;5026412;28;20217;-46
2021/10/26 06:01:01;;;;;;;13.57;11.20;;;11.90;99.90;;;;;;5016183;28;21073;-45
2021/10/26 06:03:26;;;;;;;20.03;12.83;;;12.10;99.90;;;;;;5025178;28;20185;-46
2021/10/26 06:05:52;;;;;;;15.43;11.30;;;12.10;99.90;;;;;;5025785;28;20775;-49
2021/10/26 06:08:18;;;;;;;15.83;11.80;;;12.00;99.90;;;;;;5025903;28;20266;-47
2021/10/26 06:10:47;;;;;;;15.53;11.80;;;12.00;99.90;;;;;;5025615;28;20240;-46
2021/10/26 06:13:21;;;;;;;13.60;10.30;;;11.90;99.90;;;;;;5023894;28;20433;-46
2021/10/26 06:15:47;;;;;;;19.37;11.10;;;12.10;99.90;;;;;;5022236;28;20854;-45
2021/10/26 06:18:13;;;;;;;14.70;11.37;;;12.00;99.90;;;;;;5022145;28;20433;-48
2021/10/26 06:20:38;;;;;;;18.57;10.80;;;12.10;99.90;;;;;;5025669;28;20214;-47
2021/10/26 06:23:04;;;;;;;13.47;9.70;;;12.30;99.90;;;;;;5025260;28;20194;-46
2021/10/26 06:25:29;;;;;;;17.20;11.10;;;12.20;99.90;;;;;;5025606;28;20197;-46
2021/10/26 06:27:56;;;;;;;17.67;11.37;;;12.10;99.90;;;;;;5025879;28;20278;-46
2021/10/26 06:30:22;;;;;;;14.53;11.43;;;12.10;99.90;;;;;;5021341;28;20205;-46
2021/10/26 06:32:48;;;;;;;17.43;11.43;;;12.10;99.90;;;;;;5018374;28;20876;-48
2021/10/26 06:35:13;;;;;;;17.43;11.63;;;12.10;99.90;;;;;;5025614;28;20191;-46
2021/10/26 06:37:43;;;;;;;15.27;11.10;;;12.10;99.90;;;;;;5025711;28;20190;-46
2021/10/26 06:40:12;;;;;;;11.50;10.30;;;12.10;99.90;;;;;;5025605;28;20214;-52
2021/10/26 06:42:38;;;;;;;17.53;10.30;;;12.10;99.90;;;;;;5025527;28;20421;-47
2021/10/26 06:45:04;;;;;;;15.57;11.83;;;12.40;99.90;;;;;;5020758;28;20616;-48
2021/10/26 06:47:29;;;;;;;14.60;11.77;;;12.10;99.90;;;;;;5020631;28;20436;-46
2021/10/26 06:49:55;;;;;;;16.43;10.70;;;12.10;99.90;;;;;;5019888;28;20186;-46
2021/10/26 06:52:21;;;;;;;16.70;11.83;;;11.90;99.90;;;;;;5026737;28;20665;-48
2021/10/26 06:54:47;;;;;;;17.47;10.97;;;12.30;99.90;;;;;;5028765;28;20212;-45
2021/10/26 06:57:14;;;;;;;13.50;11.03;;;12.10;99.90;;;;;;5029646;28;20594;-45
2021/10/26 06:59:40;;;;;;;17.10;9.90;;;12.00;99.90;;;;;;5027930;28;20460;-48
2021/10/26 07:02:06;;;;;;;16.30;9.17;;;12.30;99.90;;;;;;5020446;28;20852;-45
2021/10/26 07:04:35;;;;;;;14.30;9.50;;;12.00;99.90;;;;;;5027657;28;20735;-48
2021/10/26 07:07:01;;;;;;;10.83;8.87;;;12.30;99.90;;;;;;5042599;28;20428;-46
2021/10/26 07:09:27;;;;;;;14.53;9.67;;;12.20;99.90;;;;;;5038770;28;20437;-49
2021/10/26 07:11:52;;;;;;;21.30;9.63;;;12.00;99.90;;;;;;5028403;28;20718;-46
2021/10/26 07:14:18;;;;;;;13.80;10.07;;;11.90;99.90;;;;;;5035938;28;20272;-46
2021/10/26 07:16:44;;;;;;;12.40;9.23;;;12.00;99.90;;;;;;5022144;28;20182;-46
2021/10/26 07:19:10;;;;;;;16.40;9.97;;;11.90;99.90;;;;;;5028595;28;20433;-45
2021/10/26 07:21:36;;;;;;;12.83;9.50;;;11.90;99.90;;;;;;5028510;28;20192;-46
2021/10/26 07:24:03;;;;;;;13.83;9.33;;;11.90;99.90;;;;;;5028435;28;20665;-46
2021/10/26 07:26:29;;;;;;;13.57;10.10;;;12.10;99.90;;;;;;5029122;28;20578;-46
2021/10/26 07:28:56;;;;;;;14.67;10.00;;;11.90;99.90;;;;;;5028999;28;20427;-45
2021/10/26 07:31:24;;;;;;;15.47;10.00;;;12.00;99.90;;;;;;5018895;28;20564;-46
2021/10/26 07:33:51;;;;;;;16.27;10.13;;;12.00;99.90;;;;;;5028222;28;20452;-46
2021/10/26 07:36:18;;;;;;;14.20;10.37;;;12.00;99.90;;;;;;5028137;28;20483;-53
2021/10/26 07:38:43;;;;;;;17.10;11.83;;;12.00;99.90;;;;;;5029013;28;20759;-48
2021/10/26 07:41:09;;;;;;;14.17;9.20;;;12.10;99.90;;;;;;5028666;28;20847;-47
2021/10/26 07:43:36;;;;;;;11.00;8.57;;;12.10;99.90;;;;;;5028103;28;20213;-47
2021/10/26 07:46:03;;;;;;;10.70;9.13;;;12.20;99.90;;;;;;5020030;28;20252;-46
2021/10/26 07:48:29;;;;;;;14.27;8.77;;;12.30;99.90;;;;;;5027179;28;20975;-49
2021/10/26 07:50:59;;;;;;;12.63;9.03;;;12.20;99.90;;;;;;5028312;28;20951;-46
2021/10/26 07:53:27;;;;;;;12.50;9.00;;;12.20;99.90;;;;;;5028090;28;20437;-45
2021/10/26 07:55:53;;;;;;;13.03;8.90;;;12.10;99.90;;;;;;5028158;28;20506;-45
2021/10/26 07:58:22;;;;;;;13.50;9.20;;;12.20;99.90;;;;;;5028211;28;20436;-46
2021/10/26 08:00:48;;;;;;;13.53;8.87;;;12.20;99.90;;;;;;5024007;28;20565;-48
2021/10/26 08:03:13;;;;;;;10.37;7.63;;;12.10;99.90;;;;;;5023327;28;20866;-47
2021/10/26 08:05:39;;;;;;;11.33;8.50;;;12.20;99.90;;;;;;5027548;28;20428;-45
2021/10/26 08:08:05;;;;;;;8.90;7.87;;;12.10;99.90;;;;;;5028295;28;20190;-45
2021/10/26 08:10:30;;;;;;;10.27;7.87;;;12.20;99.90;;;;;;5028069;28;20283;-45
2021/10/26 08:12:57;;;;;;;12.37;8.93;;;12.20;99.90;;;;;;5026465;28;20222;-51
2021/10/26 08:15:23;;;;;;;10.90;8.80;;;12.40;99.90;;;;;;5022311;28;20198;-46
2021/10/26 08:17:49;;;;;;;10.43;8.33;;;12.20;99.90;;;;;;5016936;28;20451;-48
2021/10/26 08:20:15;;;;;;;10.20;7.67;;;12.30;99.90;;;;;;5027755;28;20472;-45
2021/10/26 08:22:41;;;;;;;12.30;8.50;;;12.30;99.90;;;;;;5027371;28;20483;-45
2021/10/26 08:25:20;;;;;;;9.27;7.83;;;12.40;99.90;;;;;;5027333;28;20452;-45
2021/10/26 08:27:50;;;;;;;12.63;8.30;;;12.40;99.90;;;;;;5027716;28;20425;-46
2021/10/26 08:35:42;;;;;;;11.10;7.40;;;12.30;99.90;;;;;;5036564;28;20451;-45
2021/10/26 08:38:08;;;;;;;13.40;7.17;;;12.30;99.90;;;;;;5047574;28;20427;-48
2021/10/26 08:40:41;;;;;;;12.53;7.50;;;12.40;99.90;;;;;;5042107;28;20464;-46
2021/10/26 08:43:08;;;;;;;8.40;7.00;;;12.30;99.90;;;;;;5046444;28;20945;-46
2021/10/26 08:45:36;;;;;;;9.53;8.00;;;12.60;99.90;;;;;;5044579;28;20421;-47
2021/10/26 08:48:05;;;;;;;13.90;8.40;;;12.30;99.90;;;;;;5019138;28;20473;-45
2021/10/26 08:50:34;;;;;;;9.40;7.60;;;12.30;99.90;;;;;;5025796;28;20468;-46
2021/10/26 08:53:02;;;;;;;12.40;8.20;;;12.40;99.90;;;;;;5023528;28;20454;-45
2021/10/26 08:55:28;;;;;;;10.70;7.87;;;12.40;99.90;;;;;;5019832;28;20460;-46
2021/10/26 08:57:56;;;;;;;10.33;7.43;;;12.40;99.90;;;;;;5026883;28;20445;-45
2021/10/26 09:00:23;;;;;;;10.90;8.13;;;12.50;99.90;;;;;;5027177;28;20472;-50
2021/10/26 09:02:51;;;;;;;8.73;7.10;;;12.50;99.90;;;;;;5014848;28;20817;-47
2021/10/26 09:05:21;;;;;;;9.00;7.07;;;12.50;99.90;;;;;;5026815;28;20850;-46
2021/10/26 09:08:00;;;;;;;11.60;7.60;;;12.70;99.90;;;;;;5026803;28;20842;-47
2021/10/26 09:10:30;;;;;;;9.57;6.63;;;12.70;99.90;;;;;;5026393;28;20923;-50
2021/10/26 09:18:43;;;;;;;6.40;5.70;;;12.70;99.90;;;;;;5025693;28;20746;-46
2021/10/26 09:21:29;;;;;;;8.83;5.97;;;12.80;99.90;;;;;;5026724;28;20812;-46
2021/10/26 09:23:58;;;;;;;9.47;6.43;;;12.80;99.90;;;;;;5026250;28;20435;-46
2021/10/26 09:26:26;;;;;;;9.37;6.03;;;12.80;99.90;;;;;;5026862;28;20463;-48
2021/10/26 09:28:56;;;;;;;7.80;5.30;;;12.80;99.90;;;;;;5027190;28;20427;-49
2021/10/26 09:31:27;;;;;;;10.30;6.03;;;12.90;99.90;;;;;;5021549;28;20446;-48
2021/10/26 09:34:02;;;;;;;6.60;5.87;;;12.90;99.90;;;;;;5022168;28;20919;-45
2021/10/26 09:36:29;;;;;;;12.23;6.27;;;12.90;99.90;;;;;;5026040;28;20798;-46
2021/10/26 09:39:04;;;;;;;8.77;5.80;;;13.00;99.90;;;;;;5026878;28;20433;-47
2021/10/26 09:42:01;;;;;;;8.10;5.87;;;13.00;99.90;;;;;;5026107;28;20494;-45
2021/10/26 09:44:38;;;;;;;10.43;6.63;;;13.10;99.90;;;;;;5012774;28;20422;-46
2021/10/26 09:47:11;;;;;;;8.83;6.60;;;13.40;99.90;;;;;;5016993;28;20543;-46
2021/10/26 09:49:39;;;;;;;6.83;6.13;;;13.50;99.90;;;;;;5025762;28;20788;-48
2021/10/26 09:52:16;;;;;;;6.27;5.67;;;13.50;99.90;;;;;;5024704;28;20495;-51
2021/10/26 09:54:48;;;;;;;8.50;6.70;;;13.60;99.90;;;;;;5025477;28;20474;-46
2021/10/26 09:57:16;;;;;;;8.10;6.40;;;13.60;99.90;;;;;;5024625;28;20815;-46
2021/10/26 09:59:50;;;;;;;9.77;6.20;;;13.60;99.90;;;;;;5025023;28;20465;-45
2021/10/26 10:02:21;;;;;;;8.20;5.70;;;13.60;99.90;;;;;;5017447;28;20537;-46
2021/10/26 10:04:48;;;;;;;12.93;6.00;;;13.60;99.90;;;;;;5025499;28;20421;-47
2021/10/26 10:07:13;;;;;;;6.83;6.07;;;13.60;99.90;;;;;;5025741;28;20432;-46
2021/10/26 10:09:39;;;;;;;9.70;4.80;;;13.70;99.90;;;;;;5026137;28;20425;-48
2021/10/26 10:12:06;;;;;;;9.43;5.30;;;13.90;99.90;;;;;;5023586;28;20194;-48
2021/10/26 10:14:40;;;;;;;6.20;4.97;;;13.80;99.90;;;;;;5032306;28;20545;-46
2021/10/26 10:17:14;;;;;;;6.97;4.93;;;13.80;99.90;;;;;;5029489;28;20733;-48
2021/10/26 10:19:40;;;;;;;4.93;3.93;;;13.80;99.90;;;;;;5018327;28;20469;-49
2021/10/26 10:22:07;;;;;;;11.30;4.90;;;13.90;99.90;;;;;;5025577;28;20751;-49
2021/10/26 10:24:42;;;;;;;6.33;4.17;;;14.00;99.90;;;;;;5025065;28;20425;-48
2021/10/26 10:27:09;;;;;;;7.23;4.30;;;14.00;99.90;;;;;;5027912;28;20428;-47
2021/10/26 10:29:38;;;;;;;8.47;4.07;;;13.80;99.90;;;;;;5032444;28;20510;-49
2021/10/26 10:32:07;;;;;;;7.17;4.00;;;13.90;99.90;;;;;;5025069;28;21018;-46
2021/10/26 10:34:33;;;;;;;8.03;3.70;;;13.90;99.90;;;;;;5023691;28;20502;-45
2021/10/26 10:37:00;;;;;;;8.23;3.43;;;13.90;99.90;;;;;;5033822;28;20819;-48
2021/10/26 10:39:33;;;;;;;8.50;3.90;;;13.80;99.90;;;;;;5051869;28;20830;-47
2021/10/26 10:42:21;;;;;;;6.97;3.47;;;13.90;99.90;;;;;;5040593;28;20427;-46
2021/10/26 10:44:47;;;;;;;8.27;3.20;;;13.80;99.90;;;;;;5051860;28;20825;-47
2021/10/26 10:47:47;;;;;;;8.60;3.40;;;13.90;99.90;;;;;;5034166;28;20728;-46
2021/10/26 10:50:33;;;;;;;4.07;2.90;;;13.80;99.90;;;;;;5027505;28;20198;-45
2021/10/26 10:53:14;;;;;;;7.03;3.60;;;13.80;99.90;;;;;;5029875;28;20447;-45
2021/10/26 10:55:52;;;;;;;7.73;3.57;;;13.90;99.90;;;;;;5032201;28;20811;-48
2021/10/26 10:58:28;;;;;;;13.93;4.40;;;14.00;99.90;;;;;;5031839;28;20447;-48
2021/10/26 11:01:30;;;;;;;8.67;5.10;;;14.00;99.90;;;;;;5032205;28;20487;-46
2021/10/26 11:03:57;;;;;;;7.70;4.47;;;14.20;99.90;;;;;;5020583;28;20479;-45
2021/10/26 11:06:41;;;;;;;10.43;5.47;;;14.40;99.90;;;;;;5032278;28;20436;-45
2021/10/26 11:09:27;;;;;;;7.67;4.33;;;14.50;99.90;;;;;;5031877;28;20504;-45
2021/10/26 11:12:20;;;;;;;9.00;4.37;;;14.50;99.90;;;;;;5030766;28;20421;-46
2021/10/26 11:15:05;;;;;;;8.23;4.03;;;14.50;99.90;;;;;;5041932;28;20439;-45
2021/10/26 11:17:36;;;;;;;11.60;4.20;;;14.40;99.90;;;;;;5038976;28;20843;-45
2021/10/26 11:20:31;;;;;;;5.90;3.47;;;14.30;99.90;;;;;;5027916;28;20496;-45
2021/10/26 11:23:02;;;;;;;9.07;4.30;;;14.30;99.90;;;;;;5027879;28;20791;-49
2021/10/26 11:25:28;;;;;;;7.67;3.60;;;14.30;99.90;;;;;;5031093;28;20480;-45
2021/10/26 11:27:55;;;;;;;9.10;4.20;;;14.40;99.90;;;;;;5031849;28;20522;-47
2021/10/26 11:30:36;;;;;;;5.10;3.50;;;14.40;99.90;;;;;;5031988;28;20186;-45
2021/10/26 11:33:13;;;;;;;4.93;3.80;;;14.60;99.90;;;;;;5023920;28;20437;-45
2021/10/26 11:36:07;;;;;;;6.60;4.00;;;14.70;99.90;;;;;;5025895;28;20428;-46
2021/10/26 11:38:43;;;;;;;6.63;3.40;;;14.90;99.90;;;;;;5030462;28;20495;-48
2021/10/26 11:41:14;;;;;;;8.30;3.60;;;15.10;99.90;;;;;;5028805;28;20468;-48
2021/10/26 11:43:47;;;;;;;5.57;3.50;;;15.20;99.90;;;;;;5026941;28;20479;-47
2021/10/26 11:46:19;;;;;;;5.03;3.17;;;15.40;99.90;;;;;;5028628;28;20441;-45
2021/10/26 11:48:55;;;;;;;6.00;3.90;;;15.50;99.90;;;;;;5023226;28;20519;-48
2021/10/26 11:51:37;;;;;;;8.80;3.20;;;15.50;99.90;;;;;;5028103;28;20981;-46
2021/10/26 11:54:17;;;;;;;4.50;2.70;;;15.50;99.90;;;;;;5026509;28;20838;-45
2021/10/26 11:56:51;;;;;;;7.40;3.00;;;15.50;99.90;;;;;;5026554;28;20460;-45
2021/10/26 11:59:21;;;;;;;4.27;3.50;;;15.40;99.90;;;;;;5028243;28;20429;-49
2021/10/26 12:01:53;;;;;;;5.20;3.23;;;15.20;99.90;;;;;;5028111;28;20421;-45
2021/10/26 12:04:25;;;;;;;4.63;2.57;;;15.10;99.90;;;;;;5017568;28;20935;-47
2021/10/26 12:06:55;;;;;;;5.43;2.67;;;14.90;99.90;;;;;;5026424;28;20437;-45
2021/10/26 12:09:22;;;;;;;4.83;2.53;;;14.80;99.90;;;;;;5015103;28;20421;-45
2021/10/26 12:11:50;;;;;;;3.87;2.57;;;14.80;99.90;;;;;;5027111;28;20429;-45
2021/10/26 12:14:34;;;;;;;4.17;2.13;;;14.90;99.90;;;;;;5025405;28;20837;-45
2021/10/26 12:17:10;;;;;;;6.37;2.20;;;15.00;99.90;;;;;;5047434;28;20452;-48
2021/10/26 12:20:03;;;;;;;4.93;2.03;;;15.20;99.90;;;;;;5020244;28;20465;-50
2021/10/26 12:22:41;;;;;;;5.00;2.30;;;15.40;99.90;;;;;;5022579;28;20421;-46
2021/10/26 12:25:21;;;;;;;4.20;2.50;;;15.50;99.90;;;;;;5026383;28;20594;-45
2021/10/26 12:27:52;;;;;;;4.00;1.70;;;15.40;99.90;;;;;;5027317;28;21127;-45
2021/10/26 12:30:27;;;;;;;2.40;2.20;;;15.40;99.90;;;;;;5028022;28;20440;-45
2021/10/26 12:32:58;;;;;;;5.40;2.00;;;15.40;99.90;;;;;;5024786;28;20764;-47
2021/10/26 12:35:26;;;;;;;4.07;2.23;;;15.40;99.90;;;;;;5021867;28;20463;-46
2021/10/26 12:38:10;;;;;;;3.80;3.10;;;15.40;99.90;;;;;;5027303;28;20421;-45
2021/10/26 12:40:47;;;;;;;5.10;2.00;;;15.30;99.90;;;;;;5027637;28;21037;-45
2021/10/26 12:43:22;;;;;;;3.20;2.30;;;15.30;99.90;;;;;;5025445;28;20954;-48
2021/10/26 12:45:49;;;;;;;3.50;2.60;;;15.30;99.90;;;;;;5007360;28;20429;-45
2021/10/26 12:48:15;;;;;;;5.87;2.03;;;15.40;99.90;;;;;;5020814;28;20661;-47
2021/10/26 12:50:51;;;;;;;3.20;2.53;;;15.40;99.90;;;;;;5019429;28;20440;-46
2021/10/26 12:53:17;;;;;;;4.30;2.50;;;15.40;99.90;;;;;;5023798;28;20513;-45
2021/10/26 12:55:53;;;;;;;3.47;2.63;;;15.20;99.90;;;;;;5025906;28;20670;-46
2021/10/26 12:58:58;;;;;;;5.83;2.83;;;15.30;99.90;;;;;;5027144;28;20432;-45